Time;durP1;ratioP1;P1;durP2;ratioP2;P2;SDS_P1;SDS_P2;PMS_P1;PMS_P2;Temp;Humidity;BMP_temperature;BMP_pressure;BME280_temperature;BME280_humidity;BME280_pressure;Samples;Min_cycle;Max_cycle;Signal;HPM_P1;HPM_P2
2021/11/10 00:01:32;;;;;;;36.38;14.05;;;;;;;;;;4825809;29;20037;-91
2021/11/10 00:03:58;;;;;;;35.45;13.93;;;;;;;;;;4825884;29;20031;-90
2021/11/10 00:06:26;;;;;;;35.15;12.98;;;;;;;;;;4825886;29;20035;-88
2021/11/10 00:08:52;;;;;;;37.15;12.80;;;;;;;;;;4825837;29;20057;-94
2021/11/10 00:11:18;;;;;;;35.72;12.85;;;;;;;;;;4825726;29;20038;-92
2021/11/10 00:13:45;;;;;;;37.00;12.68;;;;;;;;;;4825852;29;20174;-91
2021/11/10 00:16:11;;;;;;;30.15;12.02;;;;;;;;;;4825941;29;20174;-92
2021/11/10 00:18:37;;;;;;;34.15;13.65;;;;;;;;;;4825709;29;20026;-91
2021/11/10 00:21:04;;;;;;;26.33;12.25;;;;;;;;;;4825416;29;20046;-92
2021/11/10 00:23:30;;;;;;;32.80;14.00;;;;;;;;;;4825533;29;20117;-91
2021/11/10 00:25:57;;;;;;;28.58;12.52;;;;;;;;;;4825518;29;20035;-92
2021/11/10 00:28:23;;;;;;;35.97;14.48;;;;;;;;;;4825724;29;20022;-89
2021/11/10 00:30:49;;;;;;;32.17;13.00;;;;;;;;;;4826954;29;20029;-91
2021/11/10 00:33:16;;;;;;;43.40;16.00;;;;;;;;;;4826471;29;20035;-90
2021/11/10 00:35:42;;;;;;;48.13;17.75;;;;;;;;;;4826672;29;20023;-90
2021/11/10 00:38:09;;;;;;;46.60;16.27;;;;;;;;;;4825884;29;20495;-90
2021/11/10 00:40:35;;;;;;;43.67;15.82;;;;;;;;;;4825334;29;20045;-89
2021/11/10 00:43:02;;;;;;;47.80;16.13;;;;;;;;;;4825789;29;20092;-91
2021/11/10 00:45:28;;;;;;;74.63;21.20;;;;;;;;;;4825404;29;20053;-91
2021/11/10 00:47:54;;;;;;;50.58;20.23;;;;;;;;;;4825589;29;20026;-91
2021/11/10 00:50:20;;;;;;;53.97;18.00;;;;;;;;;;4825411;29;20041;-90
2021/11/10 00:52:46;;;;;;;50.10;19.70;;;;;;;;;;4826320;29;20031;-93
2021/11/10 00:55:12;;;;;;;47.88;16.75;;;;;;;;;;4825769;29;20042;-92
2021/11/10 00:57:39;;;;;;;38.42;14.57;;;;;;;;;;4825645;29;20034;-91
2021/11/10 01:00:06;;;;;;;29.88;12.95;;;;;;;;;;4825473;29;20042;-91
2021/11/10 01:02:32;;;;;;;39.38;13.20;;;;;;;;;;4826749;29;20034;-92
2021/11/10 01:04:58;;;;;;;42.90;13.45;;;;;;;;;;4825404;29;20063;-92
2021/11/10 01:07:25;;;;;;;39.25;14.15;;;;;;;;;;4825651;29;20037;-92
2021/11/10 01:09:58;;;;;;;30.42;13.15;;;;;;;;;;4824830;29;20054;-92
2021/11/10 01:12:24;;;;;;;29.00;12.23;;;;;;;;;;4825343;29;20086;-91
2021/11/10 01:14:50;;;;;;;31.60;14.18;;;;;;;;;;4825470;29;20472;-90
2021/11/10 01:17:16;;;;;;;35.13;13.70;;;;;;;;;;4825336;29;20034;-92
2021/11/10 01:19:43;;;;;;;28.13;12.35;;;;;;;;;;4825257;29;20034;-93
2021/11/10 01:22:09;;;;;;;34.78;14.35;;;;;;;;;;4830275;29;20034;-92
2021/11/10 01:24:36;;;;;;;39.00;14.77;;;;;;;;;;4839313;29;20027;-93
2021/11/10 01:27:02;;;;;;;42.30;14.68;;;;;;;;;;4838487;29;20083;-88
2021/11/10 01:29:29;;;;;;;51.45;15.65;;;;;;;;;;4840441;29;20105;-93
2021/11/10 01:31:55;;;;;;;43.20;14.35;;;;;;;;;;4837012;29;20492;-94
2021/11/10 01:34:21;;;;;;;39.38;13.55;;;;;;;;;;4830864;29;20035;-91
2021/11/10 01:36:47;;;;;;;29.25;12.10;;;;;;;;;;4830089;29;20469;-93
2021/11/10 01:39:13;;;;;;;24.35;10.05;;;;;;;;;;4827491;29;20022;-92
2021/11/10 01:41:43;;;;;;;20.25;8.55;;;;;;;;;;4825815;29;20031;-93
2021/11/10 01:44:17;;;;;;;32.20;9.75;;;;;;;;;;4824682;29;20037;-90
2021/11/10 01:46:43;;;;;;;23.13;9.18;;;;;;;;;;4824398;29;20026;-91
2021/11/10 01:49:10;;;;;;;24.83;10.55;;;;;;;;;;4824436;29;20042;-92
2021/11/10 01:51:41;;;;;;;29.55;9.93;;;;;;;;;;4825639;29;20075;-93
2021/11/10 01:54:07;;;;;;;26.48;10.50;;;;;;;;;;4824798;29;20094;-92
2021/11/10 01:56:35;;;;;;;23.27;8.70;;;;;;;;;;4824466;29;20050;-92
2021/11/10 01:59:02;;;;;;;24.33;9.98;;;;;;;;;;4825334;29;20037;-93
2021/11/10 02:01:28;;;;;;;28.20;11.15;;;;;;;;;;4826276;29;20042;-93
2021/11/10 02:03:55;;;;;;;42.45;15.23;;;;;;;;;;4824331;29;20062;-93
2021/11/10 02:06:21;;;;;;;50.00;15.27;;;;;;;;;;4824366;29;20405;-93
2021/11/10 02:08:47;;;;;;;30.45;11.07;;;;;;;;;;4824025;29;20137;-90
2021/11/10 02:11:14;;;;;;;30.88;10.55;;;;;;;;;;4825870;29;20053;-93
2021/11/10 02:13:40;;;;;;;22.80;10.32;;;;;;;;;;4824181;29;20065;-91
2021/11/10 02:16:07;;;;;;;34.88;11.40;;;;;;;;;;4824126;29;20117;-93
2021/11/10 02:18:33;;;;;;;28.25;9.18;;;;;;;;;;4824127;29;20030;-92
2021/11/10 02:20:59;;;;;;;33.55;12.00;;;;;;;;;;4824010;29;20125;-92
2021/11/10 02:23:25;;;;;;;25.02;10.13;;;;;;;;;;4827413;29;20027;-92
2021/11/10 02:25:58;;;;;;;27.25;10.52;;;;;;;;;;4827450;29;20042;-93
2021/11/10 02:28:24;;;;;;;21.85;10.25;;;;;;;;;;4827582;29;20026;-90
2021/11/10 02:30:51;;;;;;;21.08;10.63;;;;;;;;;;4827595;29;20130;-93
2021/11/10 02:33:25;;;;;;;24.77;8.50;;;;;;;;;;4836876;29;20027;-88
2021/11/10 02:35:58;;;;;;;31.83;13.05;;;;;;;;;;4847843;29;20034;-89
2021/11/10 02:38:24;;;;;;;33.75;12.75;;;;;;;;;;4847071;29;20030;-90
2021/11/10 02:40:53;;;;;;;27.25;11.75;;;;;;;;;;4830762;29;20053;-93
2021/11/10 02:43:19;;;;;;;32.92;11.75;;;;;;;;;;4829588;29;20031;-92
2021/11/10 02:45:47;;;;;;;26.83;11.82;;;;;;;;;;4828082;29;20125;-93
2021/11/10 02:48:13;;;;;;;26.52;11.68;;;;;;;;;;4827281;29;20030;-90
2021/11/10 02:50:41;;;;;;;25.23;10.48;;;;;;;;;;4827069;29;20034;-91
2021/11/10 02:53:07;;;;;;;21.50;9.25;;;;;;;;;;4826947;29;20553;-90
2021/11/10 02:55:34;;;;;;;23.73;10.38;;;;;;;;;;4826911;29;20041;-93
2021/11/10 02:58:00;;;;;;;24.85;10.18;;;;;;;;;;4827251;29;20058;-93
2021/11/10 03:00:27;;;;;;;35.42;11.45;;;;;;;;;;4826970;29;20569;-89
2021/11/10 03:02:54;;;;;;;34.55;10.45;;;;;;;;;;4826782;29;20512;-90
2021/11/10 03:05:21;;;;;;;28.60;12.32;;;;;;;;;;4828008;29;20406;-93
2021/11/10 03:07:47;;;;;;;20.65;9.60;;;;;;;;;;4827162;29;20031;-93
2021/11/10 03:10:13;;;;;;;16.90;7.70;;;;;;;;;;4846187;29;20084;-91
2021/11/10 03:12:40;;;;;;;23.05;9.73;;;;;;;;;;4830003;29;20022;-92
2021/11/10 03:15:06;;;;;;;26.33;10.77;;;;;;;;;;4830189;29;20034;-93
2021/11/10 03:17:32;;;;;;;24.48;10.65;;;;;;;;;;4830329;29;20044;-93
2021/11/10 03:19:58;;;;;;;30.10;10.35;;;;;;;;;;4846121;29;20030;-91
2021/11/10 03:22:25;;;;;;;32.83;13.10;;;;;;;;;;4829904;29;20065;-94
2021/11/10 03:24:51;;;;;;;31.60;11.77;;;;;;;;;;4829852;29;20487;-93
2021/11/10 03:27:18;;;;;;;32.17;12.00;;;;;;;;;;4830054;29;20030;-92
2021/11/10 03:29:51;;;;;;;28.55;10.43;;;;;;;;;;4829669;29;20561;-92
2021/11/10 03:32:19;;;;;;;25.80;9.85;;;;;;;;;;4846122;29;20105;-93
2021/11/10 03:34:46;;;;;;;25.90;9.70;;;;;;;;;;4830314;29;20364;-93
2021/11/10 03:37:13;;;;;;;34.88;13.73;;;;;;;;;;4829591;29;20026;-92
2021/11/10 03:39:39;;;;;;;39.22;14.40;;;;;;;;;;4829120;29;20049;-91
2021/11/10 03:42:06;;;;;;;28.95;12.02;;;;;;;;;;4829496;29;20030;-92
2021/11/10 03:44:33;;;;;;;18.90;9.60;;;;;;;;;;4829465;29;20120;-93
2021/11/10 03:46:59;;;;;;;23.95;9.68;;;;;;;;;;4830040;29;20077;-92
2021/11/10 03:49:25;;;;;;;22.83;9.60;;;;;;;;;;4829007;29;20034;-90
2021/11/10 03:51:53;;;;;;;34.97;11.38;;;;;;;;;;4829115;29;20033;-93
2021/11/10 03:54:19;;;;;;;25.40;10.50;;;;;;;;;;4845645;29;20066;-91
2021/11/10 03:56:46;;;;;;;29.02;10.63;;;;;;;;;;4845294;29;20080;-93
2021/11/10 03:59:13;;;;;;;28.05;9.85;;;;;;;;;;4829020;29;20030;-93
2021/11/10 04:01:40;;;;;;;23.38;9.95;;;;;;;;;;4829043;29;20087;-92
2021/11/10 04:04:06;;;;;;;24.38;9.75;;;;;;;;;;4828970;29;20078;-92
2021/11/10 04:06:33;;;;;;;24.75;9.43;;;;;;;;;;4828838;29;20038;-93
2021/11/10 04:08:59;;;;;;;18.95;8.27;;;;;;;;;;4825736;29;20049;-91
2021/11/10 04:11:25;;;;;;;25.77;9.90;;;;;;;;;;4825829;29;20078;-92
2021/11/10 04:13:52;;;;;;;30.98;12.02;;;;;;;;;;4826233;29;20133;-92
2021/11/10 04:16:22;;;;;;;30.00;12.07;;;;;;;;;;4825966;29;20112;-92
2021/11/10 04:18:53;;;;;;;31.40;12.63;;;;;;;;;;4826377;29;20038;-91
2021/11/10 04:21:20;;;;;;;33.65;13.38;;;;;;;;;;4823653;29;20103;-94
2021/11/10 04:23:48;;;;;;;30.85;13.82;;;;;;;;;;4826252;29;20095;-92
2021/11/10 04:26:14;;;;;;;35.53;15.73;;;;;;;;;;4826922;29;20053;-91
2021/11/10 04:28:41;;;;;;;49.05;14.73;;;;;;;;;;4826100;29;20118;-91
2021/11/10 04:31:08;;;;;;;45.03;15.30;;;;;;;;;;4827347;29;20034;-95
2021/11/10 04:33:34;;;;;;;39.70;15.10;;;;;;;;;;4827828;29;20037;-93
2021/11/10 04:36:00;;;;;;;36.60;14.35;;;;;;;;;;4828096;29;20034;-93
2021/11/10 04:38:27;;;;;;;34.28;14.38;;;;;;;;;;4826924;29;20031;-93
2021/11/10 04:40:53;;;;;;;37.88;14.90;;;;;;;;;;4827465;29;20038;-93
2021/11/10 04:43:19;;;;;;;27.10;11.68;;;;;;;;;;4826580;29;20033;-92
2021/11/10 04:45:49;;;;;;;47.78;14.75;;;;;;;;;;4826033;29;20034;-92
2021/11/10 04:48:15;;;;;;;45.53;15.10;;;;;;;;;;4827204;29;20030;-93
2021/11/10 04:50:46;;;;;;;41.15;16.77;;;;;;;;;;4825961;29;20035;-93
2021/11/10 04:53:12;;;;;;;50.65;17.85;;;;;;;;;;4825363;29;20022;-90
2021/11/10 04:55:39;;;;;;;50.65;16.90;;;;;;;;;;4827277;29;20038;-93
2021/11/10 04:58:05;;;;;;;50.95;17.52;;;;;;;;;;4825379;29;20030;-93
2021/11/10 05:00:31;;;;;;;52.28;16.23;;;;;;;;;;4825800;29;20046;-93
2021/11/10 05:02:58;;;;;;;44.65;16.25;;;;;;;;;;4825453;29;20111;-92
2021/11/10 05:05:24;;;;;;;33.92;12.95;;;;;;;;;;4825146;29;20042;-94
2021/11/10 05:07:51;;;;;;;43.22;12.60;;;;;;;;;;4825381;29;20030;-92
2021/11/10 05:10:17;;;;;;;33.40;13.45;;;;;;;;;;4844076;29;20089;-90
2021/11/10 05:12:44;;;;;;;39.53;12.52;;;;;;;;;;4827965;29;20042;-92
2021/11/10 05:15:12;;;;;;;33.60;13.15;;;;;;;;;;4828079;29;20067;-92
2021/11/10 05:17:39;;;;;;;25.98;13.13;;;;;;;;;;4828026;29;20054;-91
2021/11/10 05:20:05;;;;;;;32.15;11.57;;;;;;;;;;4828218;29;20054;-93
2021/11/10 05:22:31;;;;;;;28.35;10.45;;;;;;;;;;4828162;29;20034;-86
2021/11/10 05:24:57;;;;;;;54.65;14.65;;;;;;;;;;4827426;29;20480;-88
2021/11/10 05:27:24;;;;;;;39.58;14.82;;;;;;;;;;4827634;29;20045;-89
2021/11/10 05:29:50;;;;;;;48.65;13.48;;;;;;;;;;4827601;29;20037;-89
2021/11/10 05:32:16;;;;;;;43.42;13.48;;;;;;;;;;4827870;29;20054;-89
2021/11/10 05:34:42;;;;;;;29.85;12.35;;;;;;;;;;4827681;29;20034;-87
2021/11/10 05:37:08;;;;;;;42.00;14.07;;;;;;;;;;4827241;29;20060;-88
2021/11/10 05:39:35;;;;;;;53.97;17.77;;;;;;;;;;4827212;29;20073;-88
2021/11/10 05:42:01;;;;;;;58.30;17.90;;;;;;;;;;4827097;29;20034;-89
2021/11/10 05:44:27;;;;;;;62.47;20.33;;;;;;;;;;4827059;29;20034;-89
2021/11/10 05:46:53;;;;;;;40.45;15.55;;;;;;;;;;4827351;29;20026;-91
2021/11/10 05:49:20;;;;;;;51.38;15.77;;;;;;;;;;4827743;29;20092;-91
2021/11/10 05:51:46;;;;;;;42.08;15.70;;;;;;;;;;4828563;29;20034;-92
2021/11/10 05:54:13;;;;;;;36.92;15.80;;;;;;;;;;4827256;29;20026;-90
2021/11/10 05:56:42;;;;;;;38.20;15.88;;;;;;;;;;4829575;29;20034;-90
2021/11/10 05:59:09;;;;;;;46.42;16.80;;;;;;;;;;4847007;29;20033;-91
2021/11/10 06:01:36;;;;;;;45.03;16.58;;;;;;;;;;4830515;29;20556;-89
2021/11/10 06:04:02;;;;;;;47.78;18.50;;;;;;;;;;4830975;29;20507;-89
2021/11/10 06:06:29;;;;;;;44.15;14.05;;;;;;;;;;4846948;29;20054;-91
2021/11/10 06:08:56;;;;;;;61.75;18.63;;;;;;;;;;4827790;29;20396;-92
2021/11/10 06:11:22;;;;;;;44.92;17.30;;;;;;;;;;4827150;29;20045;-89
2021/11/10 06:13:48;;;;;;;54.28;18.38;;;;;;;;;;4826288;29;20086;-87
2021/11/10 06:16:14;;;;;;;48.42;17.17;;;;;;;;;;4827821;29;20026;-88
2021/11/10 06:18:40;;;;;;;35.58;14.45;;;;;;;;;;4828484;29;20117;-89
2021/11/10 06:21:07;;;;;;;36.55;16.17;;;;;;;;;;4826872;29;20500;-88
2021/11/10 06:23:34;;;;;;;48.15;15.85;;;;;;;;;;4827324;29;20027;-87
2021/11/10 06:26:01;;;;;;;32.55;13.20;;;;;;;;;;4827028;29;20042;-88
2021/11/10 06:28:27;;;;;;;38.08;13.82;;;;;;;;;;4827503;29;20097;-89
2021/11/10 06:30:53;;;;;;;27.67;12.80;;;;;;;;;;4826907;29;20377;-89
2021/11/10 06:33:19;;;;;;;30.92;13.43;;;;;;;;;;4826936;29;20022;-88
2021/11/10 06:35:45;;;;;;;38.10;12.43;;;;;;;;;;4827179;29;20491;-88
2021/11/10 06:38:11;;;;;;;34.13;12.32;;;;;;;;;;4827261;29;20483;-88
2021/11/10 06:40:37;;;;;;;32.55;13.27;;;;;;;;;;4826727;29;20133;-88
2021/11/10 06:43:04;;;;;;;35.17;14.15;;;;;;;;;;4826919;29;20027;-88
2021/11/10 06:45:30;;;;;;;41.58;15.38;;;;;;;;;;4827823;29;20041;-88
2021/11/10 06:47:56;;;;;;;42.47;20.90;;;;;;;;;;4826720;29;20038;-88
2021/11/10 06:50:22;;;;;;;40.47;17.95;;;;;;;;;;4826639;29;20037;-89
2021/11/10 06:52:48;;;;;;;37.15;14.93;;;;;;;;;;4826859;29;20045;-88
2021/11/10 06:55:14;;;;;;;28.83;13.68;;;;;;;;;;4826836;29;20034;-89
2021/11/10 06:57:40;;;;;;;33.17;14.30;;;;;;;;;;4826916;29;20373;-88
2021/11/10 07:00:08;;;;;;;31.90;13.98;;;;;;;;;;4826566;29;20038;-89
2021/11/10 07:02:34;;;;;;;40.15;15.20;;;;;;;;;;4826633;29;20063;-88
2021/11/10 07:05:00;;;;;;;34.05;15.48;;;;;;;;;;4826601;29;20031;-89
2021/11/10 07:07:27;;;;;;;44.20;17.00;;;;;;;;;;4826022;29;20057;-88
2021/11/10 07:09:53;;;;;;;49.70;20.08;;;;;;;;;;4842218;29;20049;-88
2021/11/10 07:12:19;;;;;;;52.90;21.65;;;;;;;;;;4846144;29;20090;-88
2021/11/10 07:14:45;;;;;;;63.95;26.40;;;;;;;;;;4829575;29;20030;-89
2021/11/10 07:17:11;;;;;;;64.35;28.52;;;;;;;;;;4845988;29;20070;-89
2021/11/10 07:19:38;;;;;;;45.67;21.42;;;;;;;;;;4846079;29;20034;-90
2021/11/10 07:22:04;;;;;;;41.65;20.70;;;;;;;;;;4829575;29;20038;-92
2021/11/10 07:24:30;;;;;;;40.85;21.17;;;;;;;;;;4830144;29;20026;-90
2021/11/10 07:26:59;;;;;;;34.35;17.67;;;;;;;;;;4830402;29;20030;-92
2021/11/10 07:29:27;;;;;;;31.30;17.20;;;;;;;;;;4829569;29;20030;-93
2021/11/10 07:31:53;;;;;;;32.33;16.83;;;;;;;;;;4829445;29;20037;-90
2021/11/10 07:34:19;;;;;;;32.38;17.85;;;;;;;;;;4829548;29;20037;-92
2021/11/10 07:36:45;;;;;;;32.97;17.73;;;;;;;;;;4850910;29;20030;-93
2021/11/10 07:39:12;;;;;;;32.90;17.27;;;;;;;;;;4829936;29;20037;-92
2021/11/10 07:41:38;;;;;;;28.13;15.68;;;;;;;;;;4830234;29;20514;-92
2021/11/10 07:44:07;;;;;;;33.50;15.77;;;;;;;;;;4837816;29;20057;-91
2021/11/10 07:46:35;;;;;;;27.90;14.63;;;;;;;;;;4842650;29;20041;-89
2021/11/10 07:49:01;;;;;;;30.55;14.68;;;;;;;;;;4847165;29;20036;-90
2021/11/10 07:51:34;;;;;;;27.38;15.18;;;;;;;;;;4848431;29;20022;-88
2021/11/10 07:54:01;;;;;;;25.77;13.87;;;;;;;;;;4840231;29;20034;-91
2021/11/10 07:56:28;;;;;;;24.25;13.48;;;;;;;;;;4833589;29;20034;-90
2021/11/10 07:58:54;;;;;;;24.52;14.40;;;;;;;;;;4829193;29;20030;-89
2021/11/10 08:01:20;;;;;;;27.35;14.07;;;;;;;;;;4828643;29;20101;-91
2021/11/10 08:03:46;;;;;;;24.83;13.68;;;;;;;;;;4829027;29;20030;-91
2021/11/10 08:06:12;;;;;;;27.13;13.85;;;;;;;;;;4829113;29;20425;-93
2021/11/10 08:08:38;;;;;;;22.80;13.15;;;;;;;;;;4825533;29;20065;-92
2021/11/10 08:11:05;;;;;;;23.42;10.70;;;;;;;;;;4826497;29;20083;-93
2021/11/10 08:13:31;;;;;;;19.75;9.63;;;;;;;;;;4825923;29;20030;-92
2021/11/10 08:15:58;;;;;;;19.98;9.18;;;;;;;;;;4825493;29;20179;-93
2021/11/10 08:18:25;;;;;;;23.23;10.15;;;;;;;;;;4825378;29;20034;-93
2021/11/10 08:20:51;;;;;;;22.83;10.95;;;;;;;;;;4824675;29;20042;-93
2021/11/10 08:23:22;;;;;;;18.25;10.13;;;;;;;;;;4829373;29;20029;-94
2021/11/10 08:25:49;;;;;;;20.30;9.82;;;;;;;;;;4829332;29;20091;-92
2021/11/10 08:28:16;;;;;;;18.75;8.85;;;;;;;;;;4834574;29;20034;-89
2021/11/10 08:30:42;;;;;;;20.15;9.70;;;;;;;;;;4825206;29;20471;-92
2021/11/10 08:33:11;;;;;;;19.52;9.70;;;;;;;;;;4825651;29;20022;-92
2021/11/10 08:35:37;;;;;;;22.70;10.85;;;;;;;;;;4825703;29;20030;-90
2021/11/10 08:38:05;;;;;;;22.88;11.15;;;;;;;;;;4825177;29;20026;-92
2021/11/10 08:40:32;;;;;;;21.13;10.40;;;;;;;;;;4825046;29;20046;-92
2021/11/10 08:42:58;;;;;;;22.70;9.70;;;;;;;;;;4825176;29;20552;-93
2021/11/10 08:45:26;;;;;;;19.92;10.18;;;;;;;;;;4825326;29;20037;-94
2021/11/10 08:47:57;;;;;;;23.17;11.05;;;;;;;;;;4825129;29;20042;-93
2021/11/10 08:50:23;;;;;;;23.10;11.00;;;;;;;;;;4825539;29;20031;-93
2021/11/10 08:52:50;;;;;;;20.98;10.95;;;;;;;;;;4825564;29;20045;-92
2021/11/10 08:55:17;;;;;;;21.50;10.07;;;;;;;;;;4824915;29;20030;-93
2021/11/10 08:57:44;;;;;;;26.15;12.73;;;;;;;;;;4825984;29;20026;-88
2021/11/10 09:00:13;;;;;;;24.38;12.52;;;;;;;;;;4827893;29;20522;-90
2021/11/10 09:02:39;;;;;;;26.85;13.43;;;;;;;;;;4826802;29;20022;-92
2021/11/10 09:05:06;;;;;;;29.48;14.50;;;;;;;;;;4825020;29;20042;-92
2021/11/10 09:07:33;;;;;;;27.08;14.27;;;;;;;;;;4825027;29;20457;-89
2021/11/10 09:09:59;;;;;;;27.42;14.75;;;;;;;;;;4824659;29;20065;-91
2021/11/10 09:12:26;;;;;;;24.75;13.55;;;;;;;;;;4824709;29;20041;-90
2021/11/10 09:14:52;;;;;;;26.08;13.68;;;;;;;;;;4825070;29;20031;-91
2021/11/10 09:17:19;;;;;;;26.40;14.40;;;;;;;;;;4824714;29;20035;-91
2021/11/10 09:19:46;;;;;;;29.05;14.70;;;;;;;;;;4824391;29;20098;-91
2021/11/10 09:22:13;;;;;;;23.95;13.27;;;;;;;;;;4824844;29;20038;-88
2021/11/10 09:24:39;;;;;;;28.45;14.68;;;;;;;;;;4825440;29;20054;-90
2021/11/10 09:27:05;;;;;;;23.80;12.75;;;;;;;;;;4824813;29;20036;-90
2021/11/10 09:29:32;;;;;;;19.85;9.48;;;;;;;;;;4824698;29;20030;-90
2021/11/10 09:31:58;;;;;;;20.23;9.82;;;;;;;;;;4824735;29;20041;-91
2021/11/10 09:34:37;;;;;;;21.15;9.75;;;;;;;;;;4824685;29;20046;-93
2021/11/10 09:37:03;;;;;;;23.17;10.07;;;;;;;;;;4824631;29;20029;-93
2021/11/10 09:39:29;;;;;;;24.52;10.93;;;;;;;;;;4824293;29;20037;-89
2021/11/10 09:41:56;;;;;;;22.58;12.35;;;;;;;;;;4824514;29;20046;-90
2021/11/10 09:44:24;;;;;;;23.35;13.32;;;;;;;;;;4824452;29;20034;-91
2021/11/10 09:46:51;;;;;;;31.23;13.13;;;;;;;;;;4825086;29;20038;-90
2021/11/10 09:49:17;;;;;;;25.42;13.35;;;;;;;;;;4825590;29;20461;-92
2021/11/10 09:51:45;;;;;;;26.02;13.95;;;;;;;;;;4824945;29;20045;-92
2021/11/10 09:54:13;;;;;;;27.25;13.68;;;;;;;;;;4825653;29;20113;-91
2021/11/10 09:56:40;;;;;;;22.83;12.50;;;;;;;;;;4824925;29;20031;-89
2021/11/10 09:59:07;;;;;;;23.95;13.55;;;;;;;;;;4824734;29;20076;-91
2021/11/10 10:01:34;;;;;;;31.55;13.55;;;;;;;;;;4824455;29;20038;-89
2021/11/10 10:04:07;;;;;;;23.25;12.85;;;;;;;;;;4827602;29;20041;-89
2021/11/10 10:06:34;;;;;;;25.17;14.83;;;;;;;;;;4824661;29;20041;-89
2021/11/10 10:09:02;;;;;;;28.52;14.00;;;;;;;;;;4833629;29;20388;-92
2021/11/10 10:11:28;;;;;;;28.27;15.32;;;;;;;;;;4825679;29;20389;-91
2021/11/10 10:13:56;;;;;;;28.95;14.65;;;;;;;;;;4843746;29;20105;-91
2021/11/10 10:16:24;;;;;;;24.55;13.35;;;;;;;;;;4827080;29;20556;-93
2021/11/10 10:18:50;;;;;;;19.45;10.57;;;;;;;;;;4827326;29;20068;-92
2021/11/10 10:21:18;;;;;;;21.35;10.75;;;;;;;;;;4827163;29;20042;-90
2021/11/10 10:23:46;;;;;;;22.88;11.40;;;;;;;;;;4827326;29;20057;-90
2021/11/10 10:26:13;;;;;;;28.23;14.10;;;;;;;;;;4827139;29;20058;-90
2021/11/10 10:28:41;;;;;;;27.75;13.75;;;;;;;;;;4826535;29;20113;-91
2021/11/10 10:31:13;;;;;;;24.20;12.85;;;;;;;;;;4827072;29;20040;-89
2021/11/10 10:33:40;;;;;;;25.60;13.07;;;;;;;;;;4827246;29;20037;-90
2021/11/10 10:36:09;;;;;;;26.25;13.68;;;;;;;;;;4827092;29;20042;-90
2021/11/10 10:38:51;;;;;;;27.25;14.88;;;;;;;;;;4827159;29;20117;-90
2021/11/10 10:41:18;;;;;;;30.10;14.75;;;;;;;;;;4826891;29;20066;-90
2021/11/10 10:43:47;;;;;;;28.77;13.88;;;;;;;;;;4828810;29;20097;-89
2021/11/10 10:46:13;;;;;;;26.73;12.98;;;;;;;;;;4830326;29;20026;-90
2021/11/10 10:48:40;;;;;;;26.58;13.73;;;;;;;;;;4830096;29;20034;-90
2021/11/10 10:51:08;;;;;;;22.90;10.43;;;;;;;;;;4829944;29;20030;-90
2021/11/10 10:53:37;;;;;;;17.98;9.30;;;;;;;;;;4830052;29;20066;-91
2021/11/10 10:56:23;;;;;;;22.30;9.85;;;;;;;;;;4830357;29;20034;-89
2021/11/10 10:58:59;;;;;;;17.33;8.57;;;;;;;;;;4829873;29;20030;-90
2021/11/10 11:01:30;;;;;;;16.80;9.00;;;;;;;;;;4829931;29;20177;-92
2021/11/10 11:03:58;;;;;;;18.98;9.45;;;;;;;;;;4829438;29;20061;-90
2021/11/10 11:06:27;;;;;;;22.13;9.90;;;;;;;;;;4829992;29;20369;-90
2021/11/10 11:08:55;;;;;;;24.70;9.90;;;;;;;;;;4845795;29;20046;-90
2021/11/10 11:11:32;;;;;;;21.85;12.38;;;;;;;;;;4829950;29;20122;-90
2021/11/10 11:13:59;;;;;;;22.42;13.13;;;;;;;;;;4829413;29;20038;-90
2021/11/10 11:16:35;;;;;;;22.65;13.07;;;;;;;;;;4829903;29;20030;-91
2021/11/10 11:19:15;;;;;;;20.92;11.98;;;;;;;;;;4829729;29;20026;-92
2021/11/10 11:21:49;;;;;;;18.00;9.30;;;;;;;;;;4829502;29;20038;-90
2021/11/10 11:24:29;;;;;;;22.27;10.30;;;;;;;;;;4829657;29;20037;-90
2021/11/10 11:26:55;;;;;;;21.80;10.38;;;;;;;;;;4829818;29;20472;-90
2021/11/10 11:29:23;;;;;;;21.83;10.07;;;;;;;;;;4829599;29;20026;-91
2021/11/10 11:31:49;;;;;;;24.52;12.63;;;;;;;;;;4829438;29;20121;-89
2021/11/10 11:34:16;;;;;;;26.88;13.13;;;;;;;;;;4830046;29;20034;-91
2021/11/10 11:36:53;;;;;;;25.02;12.95;;;;;;;;;;4829598;29;20502;-90
2021/11/10 11:39:20;;;;;;;24.58;14.20;;;;;;;;;;4829391;29;20082;-92
2021/11/10 11:41:47;;;;;;;28.42;13.82;;;;;;;;;;4828997;29;20418;-90
2021/11/10 11:44:13;;;;;;;25.38;13.82;;;;;;;;;;4829045;29;20134;-90
2021/11/10 11:46:41;;;;;;;24.02;11.40;;;;;;;;;;4828964;29;20385;-91
2021/11/10 11:49:07;;;;;;;23.65;12.23;;;;;;;;;;4829431;29;20026;-90
2021/11/10 11:51:33;;;;;;;27.50;12.25;;;;;;;;;;4829141;29;20174;-91
2021/11/10 11:54:01;;;;;;;23.55;11.82;;;;;;;;;;4828985;29;20037;-89
2021/11/10 11:56:28;;;;;;;21.63;11.27;;;;;;;;;;4828842;29;20030;-90
2021/11/10 11:58:56;;;;;;;22.42;10.63;;;;;;;;;;4829282;29;20399;-92
2021/11/10 12:01:26;;;;;;;20.75;11.30;;;;;;;;;;4828863;29;20484;-91
2021/11/10 12:03:54;;;;;;;22.55;11.40;;;;;;;;;;4829249;29;20033;-90
2021/11/10 12:06:23;;;;;;;22.42;10.57;;;;;;;;;;4828891;29;20034;-90
2021/11/10 12:09:12;;;;;;;18.92;9.63;;;;;;;;;;4825438;29;20054;-90
2021/11/10 12:11:40;;;;;;;18.02;9.93;;;;;;;;;;4825667;29;20090;-90
2021/11/10 12:14:17;;;;;;;19.10;10.13;;;;;;;;;;4825774;29;20031;-89
2021/11/10 12:16:45;;;;;;;17.25;9.88;;;;;;;;;;4825984;29;20090;-91
2021/11/10 12:19:13;;;;;;;19.67;10.57;;;;;;;;;;4825544;29;20034;-89
2021/11/10 12:21:41;;;;;;;22.63;11.27;;;;;;;;;;4826282;29;20046;-89
2021/11/10 12:24:11;;;;;;;18.60;10.88;;;;;;;;;;4825767;29;20391;-90
2021/11/10 12:26:56;;;;;;;24.20;14.35;;;;;;;;;;4825817;29;20038;-92
2021/11/10 12:29:41;;;;;;;22.95;11.82;;;;;;;;;;4825782;29;20031;-88
2021/11/10 12:32:14;;;;;;;21.75;10.60;;;;;;;;;;4826190;29;20037;-91
2021/11/10 12:34:40;;;;;;;22.30;11.40;;;;;;;;;;4825807;29;20042;-90
2021/11/10 12:37:20;;;;;;;25.42;13.07;;;;;;;;;;4825798;29;20041;-90
2021/11/10 12:39:46;;;;;;;24.23;11.80;;;;;;;;;;4825857;29;20514;-92
2021/11/10 12:42:18;;;;;;;24.65;10.77;;;;;;;;;;4825558;29;20058;-88
2021/11/10 12:44:46;;;;;;;23.25;11.82;;;;;;;;;;4826648;29;20030;-89
2021/11/10 12:47:15;;;;;;;19.23;10.15;;;;;;;;;;4825329;29;20412;-91
2021/11/10 12:49:42;;;;;;;23.73;10.55;;;;;;;;;;4825439;29;20062;-91
2021/11/10 12:52:15;;;;;;;23.42;11.77;;;;;;;;;;4826106;29;20109;-89
2021/11/10 12:54:46;;;;;;;23.27;10.80;;;;;;;;;;4835609;29;20029;-88
2021/11/10 12:57:28;;;;;;;20.63;9.63;;;;;;;;;;4841907;29;20038;-90
2021/11/10 12:59:54;;;;;;;22.02;10.95;;;;;;;;;;4825274;29;20045;-90
2021/11/10 13:02:22;;;;;;;23.00;11.63;;;;;;;;;;4825268;29;20476;-90
2021/11/10 13:04:53;;;;;;;28.52;12.52;;;;;;;;;;4817090;29;20035;-88
2021/11/10 13:07:21;;;;;;;22.23;11.52;;;;;;;;;;4806572;29;20027;-90
2021/11/10 13:09:51;;;;;;;22.27;10.43;;;;;;;;;;4806454;29;20409;-90
2021/11/10 13:12:20;;;;;;;24.55;11.50;;;;;;;;;;4806561;29;20500;-90
2021/11/10 13:14:52;;;;;;;17.52;9.05;;;;;;;;;;4807089;29;20031;-90
2021/11/10 13:17:26;;;;;;;17.60;8.95;;;;;;;;;;4807498;29;20034;-90
2021/11/10 13:20:12;;;;;;;17.42;9.02;;;;;;;;;;4807234;29;20045;-91
2021/11/10 13:22:40;;;;;;;20.95;10.15;;;;;;;;;;4806699;29;20485;-90
2021/11/10 13:25:06;;;;;;;24.40;10.95;;;;;;;;;;4806866;29;20082;-88
2021/11/10 13:27:35;;;;;;;20.02;9.90;;;;;;;;;;4807649;29;20436;-90
2021/11/10 13:30:04;;;;;;;20.25;9.52;;;;;;;;;;4806652;29;20027;-90
2021/11/10 13:32:30;;;;;;;24.00;10.00;;;;;;;;;;4806781;29;20027;-89
2021/11/10 13:35:00;;;;;;;18.30;9.18;;;;;;;;;;4806369;29;20101;-89
2021/11/10 13:37:39;;;;;;;16.65;8.30;;;;;;;;;;4806669;29;20030;-90
2021/11/10 13:40:05;;;;;;;16.90;8.98;;;;;;;;;;4806894;29;20121;-92
2021/11/10 13:42:31;;;;;;;21.08;9.70;;;;;;;;;;4804074;29;20493;-88
2021/11/10 13:45:11;;;;;;;15.88;7.57;;;;;;;;;;4807276;29;20029;-91
2021/11/10 13:47:38;;;;;;;19.77;8.95;;;;;;;;;;4806636;29;20415;-91
2021/11/10 13:50:06;;;;;;;17.23;9.20;;;;;;;;;;4807840;29;20035;-89
2021/11/10 13:52:32;;;;;;;16.52;8.50;;;;;;;;;;4806695;29;20038;-91
2021/11/10 13:55:00;;;;;;;24.60;9.20;;;;;;;;;;4807064;29;20030;-88
2021/11/10 13:57:28;;;;;;;15.30;8.07;;;;;;;;;;4806503;29;20034;-90
2021/11/10 13:59:55;;;;;;;22.40;8.75;;;;;;;;;;4806548;29;20080;-89
2021/11/10 14:02:23;;;;;;;22.73;8.70;;;;;;;;;;4806710;29;20054;-89
2021/11/10 14:04:57;;;;;;;17.00;8.60;;;;;;;;;;4806141;29;20038;-89
2021/11/10 14:07:24;;;;;;;20.20;9.27;;;;;;;;;;4822187;29;20035;-90
2021/11/10 14:09:57;;;;;;;23.52;9.90;;;;;;;;;;4823480;29;20054;-91
2021/11/10 14:12:23;;;;;;;;;;;;;;;;;;4824883;29;20031;-90
2021/11/10 14:15:03;;;;;;;15.18;7.38;;;;;;;;;;4824170;29;19916;-90
2021/11/10 14:17:31;;;;;;;17.40;8.00;;;;;;;;;;4826085;29;20035;-90
2021/11/10 14:20:02;;;;;;;16.67;6.75;;;;;;;;;;4827842;29;20068;-90
2021/11/10 14:22:29;;;;;;;15.88;6.63;;;;;;;;;;4827881;29;20121;-92
2021/11/10 14:24:56;;;;;;;13.07;6.07;;;;;;;;;;4827884;29;20030;-90